sensor_id;sensor_type;location;lat;lon;timestamp;temperature;humidity
3300;DHT22;1662;49.310;8.134;2023-07-24T00:00:32;21.10;99.90
3300;DHT22;1662;49.310;8.134;2023-07-24T00:02:59;21.10;99.90
3300;DHT22;1662;49.310;8.134;2023-07-24T00:05:27;21.30;99.90
3300;DHT22;1662;49.310;8.134;2023-07-24T00:07:52;21.10;99.90
3300;DHT22;1662;49.310;8.134;2023-07-24T00:10:18;20.90;99.90
3300;DHT22;1662;49.310;8.134;2023-07-24T00:12:44;20.90;99.90
3300;DHT22;1662;49.310;8.134;2023-07-24T00:15:09;21.00;99.90
3300;DHT22;1662;49.310;8.134;2023-07-24T00:17:35;20.90;99.90
3300;DHT22;1662;49.310;8.134;2023-07-24T00:20:01;20.80;99.90
3300;DHT22;1662;49.310;8.134;2023-07-24T00:22:26;20.60;99.90
3300;DHT22;1662;49.310;8.134;2023-07-24T00:24:52;20.60;99.90
3300;DHT22;1662;49.310;8.134;2023-07-24T00:27:17;20.70;99.90
3300;DHT22;1662;49.310;8.134;2023-07-24T00:29:45;20.60;99.90
3300;DHT22;1662;49.310;8.134;2023-07-24T00:32:11;20.60;99.90
3300;DHT22;1662;49.310;8.134;2023-07-24T00:34:37;20.60;99.90
3300;DHT22;1662;49.310;8.134;2023-07-24T00:37:05;20.50;99.90
3300;DHT22;1662;49.310;8.134;2023-07-24T00:39:31;20.50;99.90
3300;DHT22;1662;49.310;8.134;2023-07-24T00:41:56;20.50;99.90
3300;DHT22;1662;49.310;8.134;2023-07-24T00:44:22;20.50;99.90
3300;DHT22;1662;49.310;8.134;2023-07-24T00:46:48;20.50;99.90
3300;DHT22;1662;49.310;8.134;2023-07-24T00:49:14;20.50;99.90
3300;DHT22;1662;49.310;8.134;2023-07-24T00:51:42;20.50;99.90
3300;DHT22;1662;49.310;8.134;2023-07-24T00:54:11;20.50;99.90
3300;DHT22;1662;49.310;8.134;2023-07-24T00:56:37;20.50;99.90
3300;DHT22;1662;49.310;8.134;2023-07-24T00:59:03;20.50;99.90
3300;DHT22;1662;49.310;8.134;2023-07-24T01:01:28;20.50;99.90
3300;DHT22;1662;49.310;8.134;2023-07-24T01:03:55;20.50;99.90
3300;DHT22;1662;49.310;8.134;2023-07-24T01:06:25;20.50;99.90
3300;DHT22;1662;49.310;8.134;2023-07-24T01:08:53;20.50;99.90
3300;DHT22;1662;49.310;8.134;2023-07-24T01:11:24;20.60;99.90
3300;DHT22;1662;49.310;8.134;2023-07-24T01:14:13;20.50;99.90
3300;DHT22;1662;49.310;8.134;2023-07-24T01:16:42;20.50;99.90
3300;DHT22;1662;49.310;8.134;2023-07-24T01:22:14;20.40;99.90
3300;DHT22;1662;49.310;8.134;2023-07-24T01:25:18;20.30;99.90
3300;DHT22;1662;49.310;8.134;2023-07-24T01:27:46;20.30;99.90
3300;DHT22;1662;49.310;8.134;2023-07-24T01:30:13;20.30;99.90
3300;DHT22;1662;49.310;8.134;2023-07-24T01:32:39;20.30;99.90
3300;DHT22;1662;49.310;8.134;2023-07-24T01:35:05;20.30;99.90
3300;DHT22;1662;49.310;8.134;2023-07-24T01:37:34;20.40;99.90
3300;DHT22;1662;49.310;8.134;2023-07-24T01:40:06;20.40;99.90
3300;DHT22;1662;49.310;8.134;2023-07-24T01:42:33;20.40;99.90
3300;DHT22;1662;49.310;8.134;2023-07-24T01:44:58;20.40;99.90
3300;DHT22;1662;49.310;8.134;2023-07-24T01:47:24;20.40;99.90
3300;DHT22;1662;49.310;8.134;2023-07-24T01:49:49;20.40;99.90
3300;DHT22;1662;49.310;8.134;2023-07-24T01:52:15;20.40;99.90
3300;DHT22;1662;49.310;8.134;2023-07-24T01:54:41;20.40;99.90
3300;DHT22;1662;49.310;8.134;2023-07-24T01:57:06;20.40;99.90
3300;DHT22;1662;49.310;8.134;2023-07-24T01:59:32;20.40;99.90
3300;DHT22;1662;49.310;8.134;2023-07-24T02:01:57;20.40;99.90
3300;DHT22;1662;49.310;8.134;2023-07-24T02:04:23;20.40;99.90
3300;DHT22;1662;49.310;8.134;2023-07-24T02:06:49;20.30;99.90
3300;DHT22;1662;49.310;8.134;2023-07-24T02:09:15;20.30;99.90
3300;DHT22;1662;49.310;8.134;2023-07-24T02:11:41;20.30;99.90
3300;DHT22;1662;49.310;8.134;2023-07-24T02:14:11;20.40;99.90
3300;DHT22;1662;49.310;8.134;2023-07-24T02:16:36;20.30;99.90
3300;DHT22;1662;49.310;8.134;2023-07-24T02:19:02;20.30;99.90
3300;DHT22;1662;49.310;8.134;2023-07-24T02:21:28;20.20;99.90
3300;DHT22;1662;49.310;8.134;2023-07-24T02:23:53;20.20;99.90
3300;DHT22;1662;49.310;8.134;2023-07-24T02:26:19;20.20;99.90
3300;DHT22;1662;49.310;8.134;2023-07-24T02:28:45;20.20;99.90
3300;DHT22;1662;49.310;8.134;2023-07-24T02:31:10;20.20;99.90
3300;DHT22;1662;49.310;8.134;2023-07-24T02:33:36;20.20;99.90
3300;DHT22;1662;49.310;8.134;2023-07-24T02:36:02;20.20;99.90
3300;DHT22;1662;49.310;8.134;2023-07-24T02:38:27;20.10;99.90
3300;DHT22;1662;49.310;8.134;2023-07-24T02:40:53;20.00;99.90
3300;DHT22;1662;49.310;8.134;2023-07-24T02:43:19;19.90;99.90
3300;DHT22;1662;49.310;8.134;2023-07-24T02:45:44;19.90;99.90
3300;DHT22;1662;49.310;8.134;2023-07-24T02:48:10;19.90;99.90
3300;DHT22;1662;49.310;8.134;2023-07-24T02:50:35;19.90;99.90
3300;DHT22;1662;49.310;8.134;2023-07-24T02:53:01;19.90;99.90
3300;DHT22;1662;49.310;8.134;2023-07-24T02:55:27;19.80;99.90
3300;DHT22;1662;49.310;8.134;2023-07-24T02:57:53;19.70;99.90
3300;DHT22;1662;49.310;8.134;2023-07-24T03:00:18;19.70;99.90
3300;DHT22;1662;49.310;8.134;2023-07-24T03:02:44;19.70;99.90
3300;DHT22;1662;49.310;8.134;2023-07-24T03:05:10;19.80;99.90
3300;DHT22;1662;49.310;8.134;2023-07-24T03:07:35;19.80;99.90
3300;DHT22;1662;49.310;8.134;2023-07-24T03:10:02;19.80;99.90
3300;DHT22;1662;49.310;8.134;2023-07-24T03:12:28;19.80;99.90
3300;DHT22;1662;49.310;8.134;2023-07-24T03:14:53;19.80;99.90
3300;DHT22;1662;49.310;8.134;2023-07-24T03:17:19;19.80;99.90
3300;DHT22;1662;49.310;8.134;2023-07-24T03:19:44;19.80;99.90
3300;DHT22;1662;49.310;8.134;2023-07-24T03:22:10;19.80;99.90
3300;DHT22;1662;49.310;8.134;2023-07-24T03:24:35;19.80;99.90
3300;DHT22;1662;49.310;8.134;2023-07-24T03:27:01;19.80;99.90
3300;DHT22;1662;49.310;8.134;2023-07-24T03:29:27;19.80;99.90
3300;DHT22;1662;49.310;8.134;2023-07-24T03:31:53;19.80;99.90
3300;DHT22;1662;49.310;8.134;2023-07-24T03:34:19;19.80;99.90
3300;DHT22;1662;49.310;8.134;2023-07-24T03:36:44;19.80;99.90
3300;DHT22;1662;49.310;8.134;2023-07-24T03:39:10;19.90;99.90
3300;DHT22;1662;49.310;8.134;2023-07-24T03:41:40;19.80;99.90
3300;DHT22;1662;49.310;8.134;2023-07-24T03:44:08;19.80;99.90
3300;DHT22;1662;49.310;8.134;2023-07-24T03:46:35;19.80;99.90
3300;DHT22;1662;49.310;8.134;2023-07-24T03:49:00;19.80;99.90
3300;DHT22;1662;49.310;8.134;2023-07-24T03:51:26;19.80;99.90
3300;DHT22;1662;49.310;8.134;2023-07-24T03:53:52;19.80;99.90
3300;DHT22;1662;49.310;8.134;2023-07-24T03:56:17;19.70;99.90
3300;DHT22;1662;49.310;8.134;2023-07-24T03:58:43;19.70;99.90
3300;DHT22;1662;49.310;8.134;2023-07-24T04:01:08;19.70;99.90
3300;DHT22;1662;49.310;8.134;2023-07-24T04:03:35;19.70;99.90
3300;DHT22;1662;49.310;8.134;2023-07-24T04:06:01;19.80;99.90
3300;DHT22;1662;49.310;8.134;2023-07-24T04:08:27;19.80;99.90
3300;DHT22;1662;49.310;8.134;2023-07-24T04:10:52;19.80;99.90
3300;DHT22;1662;49.310;8.134;2023-07-24T04:13:18;19.80;99.90
3300;DHT22;1662;49.310;8.134;2023-07-24T04:15:46;19.80;99.90
3300;DHT22;1662;49.310;8.134;2023-07-24T04:18:11;19.80;99.90
3300;DHT22;1662;49.310;8.134;2023-07-24T04:20:37;19.80;99.90
3300;DHT22;1662;49.310;8.134;2023-07-24T04:23:03;19.70;99.90
3300;DHT22;1662;49.310;8.134;2023-07-24T04:25:31;19.70;99.90
3300;DHT22;1662;49.310;8.134;2023-07-24T04:27:57;19.60;99.90
3300;DHT22;1662;49.310;8.134;2023-07-24T04:30:22;19.60;99.90
3300;DHT22;1662;49.310;8.134;2023-07-24T04:32:48;19.70;99.90
3300;DHT22;1662;49.310;8.134;2023-07-24T04:35:15;19.70;99.90
3300;DHT22;1662;49.310;8.134;2023-07-24T04:37:42;19.50;99.90
3300;DHT22;1662;49.310;8.134;2023-07-24T04:40:08;19.40;99.90
3300;DHT22;1662;49.310;8.134;2023-07-24T04:42:34;19.40;99.90
3300;DHT22;1662;49.310;8.134;2023-07-24T04:45:02;19.40;99.90
3300;DHT22;1662;49.310;8.134;2023-07-24T04:47:28;19.50;99.90
3300;DHT22;1662;49.310;8.134;2023-07-24T04:49:53;19.50;99.90
3300;DHT22;1662;49.310;8.134;2023-07-24T04:52:20;19.50;99.90
3300;DHT22;1662;49.310;8.134;2023-07-24T04:54:46;19.50;99.90
3300;DHT22;1662;49.310;8.134;2023-07-24T04:57:11;19.40;99.90
3300;DHT22;1662;49.310;8.134;2023-07-24T04:59:37;19.40;99.90
3300;DHT22;1662;49.310;8.134;2023-07-24T05:02:03;19.30;99.90
3300;DHT22;1662;49.310;8.134;2023-07-24T05:04:30;19.40;99.90
3300;DHT22;1662;49.310;8.134;2023-07-24T05:06:55;19.30;99.90
3300;DHT22;1662;49.310;8.134;2023-07-24T05:09:21;19.30;99.90
3300;DHT22;1662;49.310;8.134;2023-07-24T05:11:46;19.40;99.90
3300;DHT22;1662;49.310;8.134;2023-07-24T05:14:12;19.40;99.90
3300;DHT22;1662;49.310;8.134;2023-07-24T05:16:38;19.40;99.90
3300;DHT22;1662;49.310;8.134;2023-07-24T05:19:03;19.40;99.90
3300;DHT22;1662;49.310;8.134;2023-07-24T05:21:29;19.40;99.90
3300;DHT22;1662;49.310;8.134;2023-07-24T05:23:54;19.40;99.90
3300;DHT22;1662;49.310;8.134;2023-07-24T05:26:20;19.40;99.90
3300;DHT22;1662;49.310;8.134;2023-07-24T05:28:50;19.50;99.90
3300;DHT22;1662;49.310;8.134;2023-07-24T05:31:20;19.50;99.90
3300;DHT22;1662;49.310;8.134;2023-07-24T05:33:46;19.50;99.90
3300;DHT22;1662;49.310;8.134;2023-07-24T05:36:11;19.50;99.90
3300;DHT22;1662;49.310;8.134;2023-07-24T05:38:37;19.60;99.90
3300;DHT22;1662;49.310;8.134;2023-07-24T05:41:05;19.60;99.90
3300;DHT22;1662;49.310;8.134;2023-07-24T05:43:31;19.70;99.90
3300;DHT22;1662;49.310;8.134;2023-07-24T05:45:58;19.70;99.90
3300;DHT22;1662;49.310;8.134;2023-07-24T05:48:24;19.70;99.90
3300;DHT22;1662;49.310;8.134;2023-07-24T05:50:52;19.70;99.90
3300;DHT22;1662;49.310;8.134;2023-07-24T05:53:18;19.70;99.90
3300;DHT22;1662;49.310;8.134;2023-07-24T05:55:46;19.70;99.90
3300;DHT22;1662;49.310;8.134;2023-07-24T05:58:11;19.70;99.90
3300;DHT22;1662;49.310;8.134;2023-07-24T06:00:37;19.70;99.90
3300;DHT22;1662;49.310;8.134;2023-07-24T06:03:03;19.70;99.90
3300;DHT22;1662;49.310;8.134;2023-07-24T06:05:29;19.80;99.90
3300;DHT22;1662;49.310;8.134;2023-07-24T06:07:55;19.80;99.90
3300;DHT22;1662;49.310;8.134;2023-07-24T06:10:22;19.80;99.90
3300;DHT22;1662;49.310;8.134;2023-07-24T06:12:48;19.90;99.90
3300;DHT22;1662;49.310;8.134;2023-07-24T06:15:14;19.90;99.90
3300;DHT22;1662;49.310;8.134;2023-07-24T06:17:39;19.90;99.90
3300;DHT22;1662;49.310;8.134;2023-07-24T06:20:06;20.00;99.90
3300;DHT22;1662;49.310;8.134;2023-07-24T06:22:32;20.00;99.90
3300;DHT22;1662;49.310;8.134;2023-07-24T06:24:57;20.10;99.90
3300;DHT22;1662;49.310;8.134;2023-07-24T06:27:23;20.10;99.90
3300;DHT22;1662;49.310;8.134;2023-07-24T06:29:48;20.10;99.90
3300;DHT22;1662;49.310;8.134;2023-07-24T06:32:14;20.10;99.90
3300;DHT22;1662;49.310;8.134;2023-07-24T06:34:39;20.20;99.90
3300;DHT22;1662;49.310;8.134;2023-07-24T06:37:05;20.10;99.90
3300;DHT22;1662;49.310;8.134;2023-07-24T06:39:31;20.20;99.90
3300;DHT22;1662;49.310;8.134;2023-07-24T06:41:58;20.20;99.90
3300;DHT22;1662;49.310;8.134;2023-07-24T06:44:24;20.30;99.90
3300;DHT22;1662;49.310;8.134;2023-07-24T06:46:49;20.40;99.90
3300;DHT22;1662;49.310;8.134;2023-07-24T06:49:15;20.50;99.90
3300;DHT22;1662;49.310;8.134;2023-07-24T06:51:40;20.60;99.90
3300;DHT22;1662;49.310;8.134;2023-07-24T06:54:06;20.80;99.90
3300;DHT22;1662;49.310;8.134;2023-07-24T06:56:34;20.90;99.90
3300;DHT22;1662;49.310;8.134;2023-07-24T06:59:00;21.10;99.90
3300;DHT22;1662;49.310;8.134;2023-07-24T07:01:25;21.40;99.90
3300;DHT22;1662;49.310;8.134;2023-07-24T07:03:51;21.60;99.90
3300;DHT22;1662;49.310;8.134;2023-07-24T07:06:17;21.80;99.90
3300;DHT22;1662;49.310;8.134;2023-07-24T07:08:42;21.90;99.90
3300;DHT22;1662;49.310;8.134;2023-07-24T07:11:08;22.00;99.90
3300;DHT22;1662;49.310;8.134;2023-07-24T07:13:34;22.10;99.90
3300;DHT22;1662;49.310;8.134;2023-07-24T07:15:59;22.20;99.90
3300;DHT22;1662;49.310;8.134;2023-07-24T07:18:25;22.30;99.90
3300;DHT22;1662;49.310;8.134;2023-07-24T07:20:52;22.40;99.90
3300;DHT22;1662;49.310;8.134;2023-07-24T07:23:20;22.40;99.90
3300;DHT22;1662;49.310;8.134;2023-07-24T07:25:46;22.50;99.90
3300;DHT22;1662;49.310;8.134;2023-07-24T07:28:13;22.50;99.90
3300;DHT22;1662;49.310;8.134;2023-07-24T07:30:39;22.60;99.90
3300;DHT22;1662;49.310;8.134;2023-07-24T07:33:05;22.60;99.90
3300;DHT22;1662;49.310;8.134;2023-07-24T07:35:32;22.50;99.90
3300;DHT22;1662;49.310;8.134;2023-07-24T07:37:57;22.60;99.90
3300;DHT22;1662;49.310;8.134;2023-07-24T07:40:23;22.60;99.90
3300;DHT22;1662;49.310;8.134;2023-07-24T07:42:49;22.60;99.90
3300;DHT22;1662;49.310;8.134;2023-07-24T07:45:15;22.70;99.90
3300;DHT22;1662;49.310;8.134;2023-07-24T07:47:40;22.70;99.90
3300;DHT22;1662;49.310;8.134;2023-07-24T07:50:06;22.70;99.90
3300;DHT22;1662;49.310;8.134;2023-07-24T07:52:32;22.70;99.90
3300;DHT22;1662;49.310;8.134;2023-07-24T07:54:57;22.60;99.90
3300;DHT22;1662;49.310;8.134;2023-07-24T07:57:25;22.60;99.90
3300;DHT22;1662;49.310;8.134;2023-07-24T07:59:51;22.60;99.90
3300;DHT22;1662;49.310;8.134;2023-07-24T08:02:16;22.60;99.90
3300;DHT22;1662;49.310;8.134;2023-07-24T08:04:42;22.60;99.90
3300;DHT22;1662;49.310;8.134;2023-07-24T08:07:07;22.70;99.90
3300;DHT22;1662;49.310;8.134;2023-07-24T08:09:35;22.80;99.90
3300;DHT22;1662;49.310;8.134;2023-07-24T08:12:03;22.80;99.90
3300;DHT22;1662;49.310;8.134;2023-07-24T08:14:30;22.80;99.90
3300;DHT22;1662;49.310;8.134;2023-07-24T08:16:55;22.80;99.90
3300;DHT22;1662;49.310;8.134;2023-07-24T08:19:21;22.90;99.90
3300;DHT22;1662;49.310;8.134;2023-07-24T08:21:47;22.90;99.90
3300;DHT22;1662;49.310;8.134;2023-07-24T08:24:13;23.00;99.90
3300;DHT22;1662;49.310;8.134;2023-07-24T08:26:38;23.00;99.90
3300;DHT22;1662;49.310;8.134;2023-07-24T08:29:05;23.00;99.90
3300;DHT22;1662;49.310;8.134;2023-07-24T08:31:30;22.90;99.90
3300;DHT22;1662;49.310;8.134;2023-07-24T08:33:56;23.00;99.90
3300;DHT22;1662;49.310;8.134;2023-07-24T08:36:24;23.00;99.90
3300;DHT22;1662;49.310;8.134;2023-07-24T08:38:49;23.00;99.90
3300;DHT22;1662;49.310;8.134;2023-07-24T08:41:15;23.10;99.90
3300;DHT22;1662;49.310;8.134;2023-07-24T08:43:42;23.10;99.90
3300;DHT22;1662;49.310;8.134;2023-07-24T08:46:11;23.10;99.90
3300;DHT22;1662;49.310;8.134;2023-07-24T08:48:40;23.20;99.90
3300;DHT22;1662;49.310;8.134;2023-07-24T08:51:08;23.30;99.90
3300;DHT22;1662;49.310;8.134;2023-07-24T08:53:36;23.30;99.90
3300;DHT22;1662;49.310;8.134;2023-07-24T08:56:03;23.20;99.90
3300;DHT22;1662;49.310;8.134;2023-07-24T08:58:30;23.30;99.90
3300;DHT22;1662;49.310;8.134;2023-07-24T09:01:00;23.30;99.90
3300;DHT22;1662;49.310;8.134;2023-07-24T09:03:26;23.40;99.90
3300;DHT22;1662;49.310;8.134;2023-07-24T09:05:52;23.40;99.90
3300;DHT22;1662;49.310;8.134;2023-07-24T09:08:32;23.50;99.90
3300;DHT22;1662;49.310;8.134;2023-07-24T09:10:59;23.50;99.90
3300;DHT22;1662;49.310;8.134;2023-07-24T09:13:25;23.50;99.90
3300;DHT22;1662;49.310;8.134;2023-07-24T09:15:51;23.60;99.90
3300;DHT22;1662;49.310;8.134;2023-07-24T09:18:19;23.50;99.90
3300;DHT22;1662;49.310;8.134;2023-07-24T09:20:44;23.60;99.90
3300;DHT22;1662;49.310;8.134;2023-07-24T09:23:12;23.70;99.90
3300;DHT22;1662;49.310;8.134;2023-07-24T09:25:39;23.80;99.90
3300;DHT22;1662;49.310;8.134;2023-07-24T09:28:13;23.90;99.90
3300;DHT22;1662;49.310;8.134;2023-07-24T09:30:39;23.90;99.90
3300;DHT22;1662;49.310;8.134;2023-07-24T09:33:06;24.00;99.90
3300;DHT22;1662;49.310;8.134;2023-07-24T09:35:31;24.00;99.90
3300;DHT22;1662;49.310;8.134;2023-07-24T09:38:09;24.00;99.90
3300;DHT22;1662;49.310;8.134;2023-07-24T09:40:42;24.10;99.90
3300;DHT22;1662;49.310;8.134;2023-07-24T09:43:19;24.00;99.90
3300;DHT22;1662;49.310;8.134;2023-07-24T09:45:47;24.10;99.90
3300;DHT22;1662;49.310;8.134;2023-07-24T09:48:15;24.00;99.90
3300;DHT22;1662;49.310;8.134;2023-07-24T09:50:49;23.90;99.90
3300;DHT22;1662;49.310;8.134;2023-07-24T09:55:57;23.80;99.90
3300;DHT22;1662;49.310;8.134;2023-07-24T09:58:25;23.70;99.90
3300;DHT22;1662;49.310;8.134;2023-07-24T10:00:52;23.60;99.90
3300;DHT22;1662;49.310;8.134;2023-07-24T10:03:19;23.60;99.90
3300;DHT22;1662;49.310;8.134;2023-07-24T10:05:46;23.60;99.90
3300;DHT22;1662;49.310;8.134;2023-07-24T10:08:12;23.60;99.90
3300;DHT22;1662;49.310;8.134;2023-07-24T10:10:39;23.60;99.90
3300;DHT22;1662;49.310;8.134;2023-07-24T10:13:06;23.60;99.90
3300;DHT22;1662;49.310;8.134;2023-07-24T10:15:32;23.60;99.90
3300;DHT22;1662;49.310;8.134;2023-07-24T10:18:03;23.60;99.90
3300;DHT22;1662;49.310;8.134;2023-07-24T10:20:37;23.70;99.90
3300;DHT22;1662;49.310;8.134;2023-07-24T10:23:10;23.70;99.90
3300;DHT22;1662;49.310;8.134;2023-07-24T10:25:38;23.70;99.90
3300;DHT22;1662;49.310;8.134;2023-07-24T10:28:10;23.70;99.90
3300;DHT22;1662;49.310;8.134;2023-07-24T10:30:42;23.80;99.90
3300;DHT22;1662;49.310;8.134;2023-07-24T10:33:18;23.90;99.90
3300;DHT22;1662;49.310;8.134;2023-07-24T10:35:47;23.90;99.90
3300;DHT22;1662;49.310;8.134;2023-07-24T10:38:15;24.00;99.90
3300;DHT22;1662;49.310;8.134;2023-07-24T10:40:42;23.90;99.90
3300;DHT22;1662;49.310;8.134;2023-07-24T10:43:10;23.90;99.90
3300;DHT22;1662;49.310;8.134;2023-07-24T10:48:08;23.90;99.90
3300;DHT22;1662;49.310;8.134;2023-07-24T10:50:43;23.90;99.90
3300;DHT22;1662;49.310;8.134;2023-07-24T10:53:10;23.70;99.90
3300;DHT22;1662;49.310;8.134;2023-07-24T10:55:36;23.80;99.90
3300;DHT22;1662;49.310;8.134;2023-07-24T10:58:02;23.80;99.90
3300;DHT22;1662;49.310;8.134;2023-07-24T11:00:27;23.80;99.90
3300;DHT22;1662;49.310;8.134;2023-07-24T11:02:54;23.90;99.90
3300;DHT22;1662;49.310;8.134;2023-07-24T11:05:23;23.90;99.90
3300;DHT22;1662;49.310;8.134;2023-07-24T11:07:49;24.00;99.90
3300;DHT22;1662;49.310;8.134;2023-07-24T11:10:24;24.20;99.90
3300;DHT22;1662;49.310;8.134;2023-07-24T11:12:51;24.10;99.90
3300;DHT22;1662;49.310;8.134;2023-07-24T11:15:25;23.90;99.90
3300;DHT22;1662;49.310;8.134;2023-07-24T11:17:52;23.70;99.90
3300;DHT22;1662;49.310;8.134;2023-07-24T11:20:17;23.70;99.90
3300;DHT22;1662;49.310;8.134;2023-07-24T11:22:44;23.90;99.90
3300;DHT22;1662;49.310;8.134;2023-07-24T11:25:10;23.80;99.90
3300;DHT22;1662;49.310;8.134;2023-07-24T11:27:43;23.60;99.90
3300;DHT22;1662;49.310;8.134;2023-07-24T11:30:12;23.50;99.90
3300;DHT22;1662;49.310;8.134;2023-07-24T11:32:44;23.40;99.90
3300;DHT22;1662;49.310;8.134;2023-07-24T11:35:11;23.40;99.90
3300;DHT22;1662;49.310;8.134;2023-07-24T11:37:37;23.40;99.90
3300;DHT22;1662;49.310;8.134;2023-07-24T11:40:05;23.40;99.90
3300;DHT22;1662;49.310;8.134;2023-07-24T11:42:44;23.60;99.90
3300;DHT22;1662;49.310;8.134;2023-07-24T11:45:10;23.80;99.90
3300;DHT22;1662;49.310;8.134;2023-07-24T11:50:12;24.40;99.90
3300;DHT22;1662;49.310;8.134;2023-07-24T11:52:57;24.60;99.90
3300;DHT22;1662;49.310;8.134;2023-07-24T11:55:32;24.60;99.90
3300;DHT22;1662;49.310;8.134;2023-07-24T11:57:59;24.60;99.90
3300;DHT22;1662;49.310;8.134;2023-07-24T12:00:25;24.30;99.90
3300;DHT22;1662;49.310;8.134;2023-07-24T12:02:51;24.00;99.90
3300;DHT22;1662;49.310;8.134;2023-07-24T12:05:17;23.80;99.90
3300;DHT22;1662;49.310;8.134;2023-07-24T12:07:44;23.70;99.90
3300;DHT22;1662;49.310;8.134;2023-07-24T12:10:24;23.50;99.90
3300;DHT22;1662;49.310;8.134;2023-07-24T12:12:51;23.50;99.90
3300;DHT22;1662;49.310;8.134;2023-07-24T12:15:17;23.60;99.90
3300;DHT22;1662;49.310;8.134;2023-07-24T12:17:42;23.90;99.90
3300;DHT22;1662;49.310;8.134;2023-07-24T12:20:08;24.40;99.90
3300;DHT22;1662;49.310;8.134;2023-07-24T12:22:38;24.80;99.90
3300;DHT22;1662;49.310;8.134;2023-07-24T12:25:05;25.00;99.90
3300;DHT22;1662;49.310;8.134;2023-07-24T12:27:31;25.40;99.90
3300;DHT22;1662;49.310;8.134;2023-07-24T12:29:57;25.60;99.90
3300;DHT22;1662;49.310;8.134;2023-07-24T12:32:23;25.70;99.90
3300;DHT22;1662;49.310;8.134;2023-07-24T12:34:50;25.60;99.90
3300;DHT22;1662;49.310;8.134;2023-07-24T12:37:17;25.40;99.90
3300;DHT22;1662;49.310;8.134;2023-07-24T12:39:44;25.30;99.90
3300;DHT22;1662;49.310;8.134;2023-07-24T12:42:10;25.50;99.90
3300;DHT22;1662;49.310;8.134;2023-07-24T12:44:39;25.80;99.90
3300;DHT22;1662;49.310;8.134;2023-07-24T12:47:05;25.80;99.90
3300;DHT22;1662;49.310;8.134;2023-07-24T12:49:31;26.00;99.90
3300;DHT22;1662;49.310;8.134;2023-07-24T12:51:56;26.30;99.90
3300;DHT22;1662;49.310;8.134;2023-07-24T12:54:22;26.40;99.90
3300;DHT22;1662;49.310;8.134;2023-07-24T12:56:49;26.50;99.90
3300;DHT22;1662;49.310;8.134;2023-07-24T12:59:15;26.20;99.90
3300;DHT22;1662;49.310;8.134;2023-07-24T13:01:41;26.00;99.90
3300;DHT22;1662;49.310;8.134;2023-07-24T13:04:07;25.90;99.90
3300;DHT22;1662;49.310;8.134;2023-07-24T13:06:36;25.70;99.90
3300;DHT22;1662;49.310;8.134;2023-07-24T13:09:02;25.70;99.90
3300;DHT22;1662;49.310;8.134;2023-07-24T13:11:30;25.60;99.90
3300;DHT22;1662;49.310;8.134;2023-07-24T13:13:56;25.80;99.90
3300;DHT22;1662;49.310;8.134;2023-07-24T13:16:22;25.80;99.90
3300;DHT22;1662;49.310;8.134;2023-07-24T13:18:48;25.80;99.90
3300;DHT22;1662;49.310;8.134;2023-07-24T13:21:14;25.70;99.90
3300;DHT22;1662;49.310;8.134;2023-07-24T13:23:40;25.50;99.90
3300;DHT22;1662;49.310;8.134;2023-07-24T13:26:06;25.30;99.90
3300;DHT22;1662;49.310;8.134;2023-07-24T13:28:34;25.10;99.90
3300;DHT22;1662;49.310;8.134;2023-07-24T13:30:59;25.00;99.90
3300;DHT22;1662;49.310;8.134;2023-07-24T13:33:35;24.90;99.90
3300;DHT22;1662;49.310;8.134;2023-07-24T13:36:03;24.70;99.90
3300;DHT22;1662;49.310;8.134;2023-07-24T13:38:30;24.60;99.90
3300;DHT22;1662;49.310;8.134;2023-07-24T13:40:56;24.50;99.90
3300;DHT22;1662;49.310;8.134;2023-07-24T13:43:21;24.40;99.90
3300;DHT22;1662;49.310;8.134;2023-07-24T13:45:51;24.40;99.90
3300;DHT22;1662;49.310;8.134;2023-07-24T13:48:17;24.30;99.90
3300;DHT22;1662;49.310;8.134;2023-07-24T13:50:42;24.30;99.90
3300;DHT22;1662;49.310;8.134;2023-07-24T13:53:08;24.30;99.90
3300;DHT22;1662;49.310;8.134;2023-07-24T13:55:34;24.30;99.90
3300;DHT22;1662;49.310;8.134;2023-07-24T13:57:59;24.00;99.90
3300;DHT22;1662;49.310;8.134;2023-07-24T14:00:25;23.30;99.90
3300;DHT22;1662;49.310;8.134;2023-07-24T14:02:51;22.60;99.90
3300;DHT22;1662;49.310;8.134;2023-07-24T14:05:17;22.40;99.90
3300;DHT22;1662;49.310;8.134;2023-07-24T14:07:42;22.30;99.90
3300;DHT22;1662;49.310;8.134;2023-07-24T14:10:10;22.40;99.90
3300;DHT22;1662;49.310;8.134;2023-07-24T14:12:37;22.40;99.90
3300;DHT22;1662;49.310;8.134;2023-07-24T14:15:03;22.40;99.90
3300;DHT22;1662;49.310;8.134;2023-07-24T14:17:29;22.40;99.90
3300;DHT22;1662;49.310;8.134;2023-07-24T14:19:55;22.20;99.90
3300;DHT22;1662;49.310;8.134;2023-07-24T14:22:20;22.40;99.90
3300;DHT22;1662;49.310;8.134;2023-07-24T14:24:46;22.40;99.90
3300;DHT22;1662;49.310;8.134;2023-07-24T14:27:13;22.70;99.90
3300;DHT22;1662;49.310;8.134;2023-07-24T14:29:41;23.00;99.90
3300;DHT22;1662;49.310;8.134;2023-07-24T14:32:07;22.80;99.90
3300;DHT22;1662;49.310;8.134;2023-07-24T14:34:33;22.80;99.90
3300;DHT22;1662;49.310;8.134;2023-07-24T14:36:59;22.80;99.90
3300;DHT22;1662;49.310;8.134;2023-07-24T14:39:24;22.70;99.90
3300;DHT22;1662;49.310;8.134;2023-07-24T14:41:51;22.60;99.90
3300;DHT22;1662;49.310;8.134;2023-07-24T14:44:16;22.40;99.90
3300;DHT22;1662;49.310;8.134;2023-07-24T14:46:42;22.30;99.90
3300;DHT22;1662;49.310;8.134;2023-07-24T14:49:07;22.30;99.90
3300;DHT22;1662;49.310;8.134;2023-07-24T14:51:33;22.40;99.90
3300;DHT22;1662;49.310;8.134;2023-07-24T14:53:58;22.70;99.90
3300;DHT22;1662;49.310;8.134;2023-07-24T14:56:24;23.00;99.90
3300;DHT22;1662;49.310;8.134;2023-07-24T14:58:50;23.20;99.90
3300;DHT22;1662;49.310;8.134;2023-07-24T15:01:15;23.60;99.90
3300;DHT22;1662;49.310;8.134;2023-07-24T15:03:41;24.00;99.90
3300;DHT22;1662;49.310;8.134;2023-07-24T15:06:07;24.20;99.90
3300;DHT22;1662;49.310;8.134;2023-07-24T15:08:33;24.50;99.90
3300;DHT22;1662;49.310;8.134;2023-07-24T15:10:59;24.50;99.90
3300;DHT22;1662;49.310;8.134;2023-07-24T15:13:25;24.30;99.90
3300;DHT22;1662;49.310;8.134;2023-07-24T15:15:53;24.30;99.90
3300;DHT22;1662;49.310;8.134;2023-07-24T15:18:18;24.50;99.90
3300;DHT22;1662;49.310;8.134;2023-07-24T15:20:44;24.40;99.90
3300;DHT22;1662;49.310;8.134;2023-07-24T15:23:10;24.40;99.90
3300;DHT22;1662;49.310;8.134;2023-07-24T15:25:39;24.30;99.90
3300;DHT22;1662;49.310;8.134;2023-07-24T15:28:04;24.40;99.90
3300;DHT22;1662;49.310;8.134;2023-07-24T15:30:30;24.60;99.90
3300;DHT22;1662;49.310;8.134;2023-07-24T15:32:56;24.90;99.90
3300;DHT22;1662;49.310;8.134;2023-07-24T15:35:21;25.10;99.90
3300;DHT22;1662;49.310;8.134;2023-07-24T15:37:49;25.00;99.90
3300;DHT22;1662;49.310;8.134;2023-07-24T15:40:15;25.20;99.90
3300;DHT22;1662;49.310;8.134;2023-07-24T15:42:43;25.30;99.90
3300;DHT22;1662;49.310;8.134;2023-07-24T15:45:10;25.20;99.90
3300;DHT22;1662;49.310;8.134;2023-07-24T15:47:35;25.10;99.90
3300;DHT22;1662;49.310;8.134;2023-07-24T15:50:03;24.80;99.90
3300;DHT22;1662;49.310;8.134;2023-07-24T15:52:30;24.70;99.90
3300;DHT22;1662;49.310;8.134;2023-07-24T15:54:55;24.40;99.90
3300;DHT22;1662;49.310;8.134;2023-07-24T15:57:21;24.40;99.90
3300;DHT22;1662;49.310;8.134;2023-07-24T15:59:46;24.70;99.90
3300;DHT22;1662;49.310;8.134;2023-07-24T16:02:12;24.90;99.90
3300;DHT22;1662;49.310;8.134;2023-07-24T16:04:38;24.80;99.90
3300;DHT22;1662;49.310;8.134;2023-07-24T16:07:04;24.70;99.90
3300;DHT22;1662;49.310;8.134;2023-07-24T16:09:30;24.50;99.90